sensor_id;sensor_type;location;lat;lon;timestamp;P1;durP1;ratioP1;P2;durP2;ratioP2
9042;SDS011;4556;49.150;8.808;2023-05-21T00:02:19;14.27;;;12.73;;
9042;SDS011;4556;49.150;8.808;2023-05-21T00:04:56;15.77;;;12.57;;
9042;SDS011;4556;49.150;8.808;2023-05-21T00:07:23;14.53;;;12.97;;
9042;SDS011;4556;49.150;8.808;2023-05-21T00:10:39;14.37;;;12.27;;
9042;SDS011;4556;49.150;8.808;2023-05-21T00:12:54;14.20;;;12.80;;
9042;SDS011;4556;49.150;8.808;2023-05-21T00:15:21;14.97;;;13.47;;
9042;SDS011;4556;49.150;8.808;2023-05-21T00:17:51;14.37;;;12.97;;
9042;SDS011;4556;49.150;8.808;2023-05-21T00:20:19;13.57;;;12.17;;
9042;SDS011;4556;49.150;8.808;2023-05-21T00:22:47;16.30;;;12.33;;
9042;SDS011;4556;49.150;8.808;2023-05-21T00:25:17;13.93;;;12.40;;
9042;SDS011;4556;49.150;8.808;2023-05-21T00:27:44;13.97;;;12.53;;
9042;SDS011;4556;49.150;8.808;2023-05-21T00:30:11;13.63;;;12.33;;
9042;SDS011;4556;49.150;8.808;2023-05-21T00:32:41;15.67;;;13.03;;
9042;SDS011;4556;49.150;8.808;2023-05-21T00:35:10;12.83;;;11.50;;
9042;SDS011;4556;49.150;8.808;2023-05-21T00:37:57;15.57;;;12.43;;
9042;SDS011;4556;49.150;8.808;2023-05-21T00:40:24;14.17;;;12.33;;
9042;SDS011;4556;49.150;8.808;2023-05-21T00:42:52;14.47;;;13.03;;
9042;SDS011;4556;49.150;8.808;2023-05-21T00:45:21;14.53;;;13.10;;
9042;SDS011;4556;49.150;8.808;2023-05-21T00:48:04;13.93;;;12.50;;
9042;SDS011;4556;49.150;8.808;2023-05-21T00:50:54;13.57;;;12.17;;
9042;SDS011;4556;49.150;8.808;2023-05-21T00:53:23;14.43;;;12.97;;
9042;SDS011;4556;49.150;8.808;2023-05-21T00:55:51;15.13;;;13.63;;
9042;SDS011;4556;49.150;8.808;2023-05-21T00:58:18;14.43;;;12.93;;
9042;SDS011;4556;49.150;8.808;2023-05-21T01:00:56;14.90;;;13.37;;
9042;SDS011;4556;49.150;8.808;2023-05-21T01:03:27;15.07;;;13.43;;
9042;SDS011;4556;49.150;8.808;2023-05-21T01:05:56;15.33;;;13.73;;
9042;SDS011;4556;49.150;8.808;2023-05-21T01:08:37;16.30;;;14.53;;
9042;SDS011;4556;49.150;8.808;2023-05-21T01:11:07;16.83;;;14.30;;
9042;SDS011;4556;49.150;8.808;2023-05-21T01:13:41;15.83;;;14.17;;
9042;SDS011;4556;49.150;8.808;2023-05-21T01:16:11;15.77;;;14.03;;
9042;SDS011;4556;49.150;8.808;2023-05-21T01:18:41;15.37;;;13.87;;
9042;SDS011;4556;49.150;8.808;2023-05-21T01:21:11;16.27;;;14.57;;
9042;SDS011;4556;49.150;8.808;2023-05-21T01:23:42;16.50;;;14.73;;
9042;SDS011;4556;49.150;8.808;2023-05-21T01:26:11;16.20;;;14.30;;
9042;SDS011;4556;49.150;8.808;2023-05-21T01:28:50;15.77;;;14.27;;
9042;SDS011;4556;49.150;8.808;2023-05-21T01:31:20;14.57;;;13.07;;
9042;SDS011;4556;49.150;8.808;2023-05-21T01:33:57;17.33;;;15.50;;
9042;SDS011;4556;49.150;8.808;2023-05-21T01:36:46;15.90;;;14.20;;
9042;SDS011;4556;49.150;8.808;2023-05-21T01:39:32;14.67;;;13.20;;
9042;SDS011;4556;49.150;8.808;2023-05-21T01:42:26;17.50;;;14.70;;
9042;SDS011;4556;49.150;8.808;2023-05-21T01:45:08;16.40;;;14.40;;
9042;SDS011;4556;49.150;8.808;2023-05-21T01:50:26;16.77;;;15.07;;
9042;SDS011;4556;49.150;8.808;2023-05-21T01:52:55;16.33;;;14.47;;
9042;SDS011;4556;49.150;8.808;2023-05-21T01:55:39;16.07;;;14.50;;
9042;SDS011;4556;49.150;8.808;2023-05-21T01:58:27;17.93;;;16.13;;
9042;SDS011;4556;49.150;8.808;2023-05-21T02:00:56;16.40;;;14.70;;
9042;SDS011;4556;49.150;8.808;2023-05-21T02:03:26;16.00;;;14.30;;
9042;SDS011;4556;49.150;8.808;2023-05-21T02:06:08;16.63;;;15.00;;
9042;SDS011;4556;49.150;8.808;2023-05-21T02:08:38;17.87;;;15.27;;
9042;SDS011;4556;49.150;8.808;2023-05-21T02:11:21;16.67;;;15.00;;
9042;SDS011;4556;49.150;8.808;2023-05-21T02:13:48;16.87;;;15.17;;
9042;SDS011;4556;49.150;8.808;2023-05-21T02:16:15;18.57;;;16.57;;
9042;SDS011;4556;49.150;8.808;2023-05-21T02:18:43;17.80;;;15.90;;
9042;SDS011;4556;49.150;8.808;2023-05-21T02:21:24;18.23;;;16.33;;
9042;SDS011;4556;49.150;8.808;2023-05-21T02:23:51;17.43;;;15.73;;
9042;SDS011;4556;49.150;8.808;2023-05-21T02:26:18;18.50;;;16.07;;
9042;SDS011;4556;49.150;8.808;2023-05-21T02:28:48;18.37;;;15.73;;
9042;SDS011;4556;49.150;8.808;2023-05-21T02:31:17;17.50;;;15.70;;
9042;SDS011;4556;49.150;8.808;2023-05-21T02:33:50;17.03;;;15.33;;
9042;SDS011;4556;49.150;8.808;2023-05-21T02:36:19;19.20;;;16.20;;
9042;SDS011;4556;49.150;8.808;2023-05-21T02:38:46;16.23;;;14.17;;
9042;SDS011;4556;49.150;8.808;2023-05-21T02:41:16;16.93;;;15.17;;
9042;SDS011;4556;49.150;8.808;2023-05-21T02:44:00;18.20;;;15.73;;
9042;SDS011;4556;49.150;8.808;2023-05-21T02:46:40;16.50;;;14.80;;
9042;SDS011;4556;49.150;8.808;2023-05-21T02:49:14;17.00;;;15.17;;
9042;SDS011;4556;49.150;8.808;2023-05-21T02:51:53;16.63;;;14.93;;
9042;SDS011;4556;49.150;8.808;2023-05-21T02:54:20;16.80;;;14.97;;
9042;SDS011;4556;49.150;8.808;2023-05-21T02:56:50;16.27;;;14.57;;
9042;SDS011;4556;49.150;8.808;2023-05-21T02:59:18;15.83;;;14.23;;
9042;SDS011;4556;49.150;8.808;2023-05-21T03:01:45;17.13;;;15.30;;
9042;SDS011;4556;49.150;8.808;2023-05-21T03:04:25;16.40;;;14.70;;
9042;SDS011;4556;49.150;8.808;2023-05-21T03:07:13;16.13;;;14.53;;
9042;SDS011;4556;49.150;8.808;2023-05-21T03:09:42;17.70;;;14.90;;
9042;SDS011;4556;49.150;8.808;2023-05-21T03:12:24;17.00;;;15.27;;
9042;SDS011;4556;49.150;8.808;2023-05-21T03:15:03;17.13;;;15.33;;
9042;SDS011;4556;49.150;8.808;2023-05-21T03:17:37;17.73;;;15.93;;
9042;SDS011;4556;49.150;8.808;2023-05-21T03:20:19;16.53;;;14.83;;
9042;SDS011;4556;49.150;8.808;2023-05-21T03:23:02;17.60;;;14.93;;
9042;SDS011;4556;49.150;8.808;2023-05-21T03:25:29;21.43;;;16.00;;
9042;SDS011;4556;49.150;8.808;2023-05-21T03:27:58;16.57;;;14.77;;
9042;SDS011;4556;49.150;8.808;2023-05-21T03:30:42;17.40;;;15.50;;
9042;SDS011;4556;49.150;8.808;2023-05-21T03:33:11;18.33;;;15.77;;
9042;SDS011;4556;49.150;8.808;2023-05-21T03:36:08;16.83;;;14.73;;
9042;SDS011;4556;49.150;8.808;2023-05-21T03:38:26;17.47;;;15.53;;
9042;SDS011;4556;49.150;8.808;2023-05-21T03:40:53;17.47;;;15.67;;
9042;SDS011;4556;49.150;8.808;2023-05-21T03:43:34;17.33;;;15.53;;
9042;SDS011;4556;49.150;8.808;2023-05-21T03:46:11;18.33;;;15.97;;
9042;SDS011;4556;49.150;8.808;2023-05-21T03:48:51;16.67;;;14.90;;
9042;SDS011;4556;49.150;8.808;2023-05-21T03:51:19;16.77;;;14.47;;
9042;SDS011;4556;49.150;8.808;2023-05-21T03:53:50;18.20;;;16.40;;
9042;SDS011;4556;49.150;8.808;2023-05-21T03:58:04;19.33;;;16.10;;
9042;SDS011;4556;49.150;8.808;2023-05-21T03:59:21;18.03;;;14.87;;
9042;SDS011;4556;49.150;8.808;2023-05-21T04:02:11;16.27;;;14.47;;
9042;SDS011;4556;49.150;8.808;2023-05-21T04:04:45;16.70;;;14.93;;
9042;SDS011;4556;49.150;8.808;2023-05-21T04:10:36;17.33;;;15.43;;
9042;SDS011;4556;49.150;8.808;2023-05-21T04:13:37;18.60;;;16.13;;
9042;SDS011;4556;49.150;8.808;2023-05-21T04:16:36;18.27;;;15.20;;
9042;SDS011;4556;49.150;8.808;2023-05-21T04:19:25;17.83;;;16.03;;
9042;SDS011;4556;49.150;8.808;2023-05-21T04:22:10;16.80;;;14.53;;
9042;SDS011;4556;49.150;8.808;2023-05-21T04:25:31;16.57;;;14.87;;
9042;SDS011;4556;49.150;8.808;2023-05-21T04:28:39;17.10;;;15.33;;
9042;SDS011;4556;49.150;8.808;2023-05-21T04:31:51;17.57;;;15.67;;
9042;SDS011;4556;49.150;8.808;2023-05-21T04:40:59;18.03;;;16.13;;
9042;SDS011;4556;49.150;8.808;2023-05-21T05:08:27;18.60;;;16.60;;
9042;SDS011;4556;49.150;8.808;2023-05-21T05:11:14;16.63;;;14.93;;
9042;SDS011;4556;49.150;8.808;2023-05-21T05:14:04;17.30;;;15.50;;
9042;SDS011;4556;49.150;8.808;2023-05-21T05:16:49;17.97;;;16.07;;
9042;SDS011;4556;49.150;8.808;2023-05-21T05:19:51;19.00;;;16.00;;
9042;SDS011;4556;49.150;8.808;2023-05-21T05:22:49;20.70;;;17.20;;
9042;SDS011;4556;49.150;8.808;2023-05-21T05:32:07;18.90;;;16.97;;
9042;SDS011;4556;49.150;8.808;2023-05-21T05:34:37;18.43;;;15.83;;
9042;SDS011;4556;49.150;8.808;2023-05-21T05:37:04;20.20;;;16.63;;
9042;SDS011;4556;49.150;8.808;2023-05-21T05:39:42;18.13;;;16.07;;
9042;SDS011;4556;49.150;8.808;2023-05-21T05:42:09;18.67;;;15.50;;
9042;SDS011;4556;49.150;8.808;2023-05-21T05:44:38;17.07;;;15.37;;
9042;SDS011;4556;49.150;8.808;2023-05-21T05:47:21;18.17;;;16.23;;
9042;SDS011;4556;49.150;8.808;2023-05-21T05:49:53;17.33;;;15.57;;
9042;SDS011;4556;49.150;8.808;2023-05-21T05:52:54;19.40;;;16.53;;
9042;SDS011;4556;49.150;8.808;2023-05-21T05:55:11;17.87;;;16.03;;
9042;SDS011;4556;49.150;8.808;2023-05-21T05:57:41;18.30;;;16.03;;
9042;SDS011;4556;49.150;8.808;2023-05-21T06:00:18;18.73;;;16.40;;
9042;SDS011;4556;49.150;8.808;2023-05-21T06:02:59;17.53;;;15.73;;
9042;SDS011;4556;49.150;8.808;2023-05-21T06:05:38;18.20;;;16.00;;
9042;SDS011;4556;49.150;8.808;2023-05-21T06:08:27;20.40;;;16.70;;
9042;SDS011;4556;49.150;8.808;2023-05-21T06:10:53;17.63;;;15.83;;
9042;SDS011;4556;49.150;8.808;2023-05-21T06:13:23;17.90;;;15.87;;
9042;SDS011;4556;49.150;8.808;2023-05-21T06:16:04;18.67;;;16.63;;
9042;SDS011;4556;49.150;8.808;2023-05-21T06:18:47;18.23;;;16.33;;
9042;SDS011;4556;49.150;8.808;2023-05-21T06:21:17;18.33;;;16.30;;
9042;SDS011;4556;49.150;8.808;2023-05-21T06:23:44;17.83;;;16.03;;
9042;SDS011;4556;49.150;8.808;2023-05-21T06:26:11;17.50;;;15.70;;
9042;SDS011;4556;49.150;8.808;2023-05-21T06:28:44;18.07;;;16.27;;
9042;SDS011;4556;49.150;8.808;2023-05-21T06:31:16;18.00;;;15.93;;
9042;SDS011;4556;49.150;8.808;2023-05-21T06:33:48;17.77;;;15.87;;
9042;SDS011;4556;49.150;8.808;2023-05-21T06:36:15;17.33;;;15.53;;
9042;SDS011;4556;49.150;8.808;2023-05-21T06:38:53;18.20;;;16.33;;
9042;SDS011;4556;49.150;8.808;2023-05-21T06:41:23;16.37;;;14.80;;
9042;SDS011;4556;49.150;8.808;2023-05-21T06:43:57;17.00;;;15.33;;
9042;SDS011;4556;49.150;8.808;2023-05-21T06:46:24;15.30;;;13.80;;
9042;SDS011;4556;49.150;8.808;2023-05-21T06:48:53;15.67;;;14.00;;
9042;SDS011;4556;49.150;8.808;2023-05-21T06:51:46;16.60;;;14.40;;
9042;SDS011;4556;49.150;8.808;2023-05-21T06:54:17;15.87;;;14.27;;
9042;SDS011;4556;49.150;8.808;2023-05-21T06:56:44;15.33;;;12.90;;
9042;SDS011;4556;49.150;8.808;2023-05-21T06:59:11;13.97;;;12.53;;
9042;SDS011;4556;49.150;8.808;2023-05-21T07:01:39;14.43;;;12.53;;
9042;SDS011;4556;49.150;8.808;2023-05-21T07:04:09;14.60;;;12.90;;
9042;SDS011;4556;49.150;8.808;2023-05-21T07:06:36;15.37;;;12.30;;
9042;SDS011;4556;49.150;8.808;2023-05-21T07:09:19;13.53;;;10.47;;
9042;SDS011;4556;49.150;8.808;2023-05-21T07:11:48;10.70;;;9.67;;
9042;SDS011;4556;49.150;8.808;2023-05-21T07:14:28;11.53;;;10.27;;
9042;SDS011;4556;49.150;8.808;2023-05-21T07:16:55;13.70;;;11.03;;
9042;SDS011;4556;49.150;8.808;2023-05-21T07:19:26;11.83;;;10.63;;
9042;SDS011;4556;49.150;8.808;2023-05-21T07:21:54;10.97;;;9.33;;
9042;SDS011;4556;49.150;8.808;2023-05-21T07:24:23;11.43;;;9.60;;
9042;SDS011;4556;49.150;8.808;2023-05-21T07:26:51;12.30;;;10.40;;
9042;SDS011;4556;49.150;8.808;2023-05-21T07:29:24;11.17;;;9.70;;
9042;SDS011;4556;49.150;8.808;2023-05-21T07:31:51;10.00;;;9.00;;
9042;SDS011;4556;49.150;8.808;2023-05-21T07:34:18;10.33;;;9.33;;
9042;SDS011;4556;49.150;8.808;2023-05-21T07:36:54;10.53;;;9.00;;
9042;SDS011;4556;49.150;8.808;2023-05-21T07:39:21;10.17;;;9.17;;
9042;SDS011;4556;49.150;8.808;2023-05-21T07:42:21;10.23;;;9.17;;
9042;SDS011;4556;49.150;8.808;2023-05-21T07:44:48;10.07;;;8.97;;
9042;SDS011;4556;49.150;8.808;2023-05-21T07:47:40;10.47;;;9.37;;
9042;SDS011;4556;49.150;8.808;2023-05-21T07:50:10;10.37;;;9.37;;
9042;SDS011;4556;49.150;8.808;2023-05-21T07:52:53;10.20;;;8.40;;
9042;SDS011;4556;49.150;8.808;2023-05-21T07:55:34;9.53;;;8.43;;
9042;SDS011;4556;49.150;8.808;2023-05-21T07:58:01;9.50;;;7.90;;
9042;SDS011;4556;49.150;8.808;2023-05-21T08:00:29;8.73;;;7.90;;
9042;SDS011;4556;49.150;8.808;2023-05-21T08:03:08;9.50;;;8.57;;
9042;SDS011;4556;49.150;8.808;2023-05-21T08:05:35;9.27;;;8.27;;
9042;SDS011;4556;49.150;8.808;2023-05-21T08:08:04;9.53;;;8.50;;
9042;SDS011;4556;49.150;8.808;2023-05-21T08:10:31;9.57;;;8.23;;
9042;SDS011;4556;49.150;8.808;2023-05-21T08:12:58;9.47;;;7.73;;
9042;SDS011;4556;49.150;8.808;2023-05-21T08:15:25;8.30;;;7.50;;
9042;SDS011;4556;49.150;8.808;2023-05-21T08:17:52;8.37;;;7.57;;
9042;SDS011;4556;49.150;8.808;2023-05-21T08:20:19;8.30;;;7.50;;
9042;SDS011;4556;49.150;8.808;2023-05-21T08:22:53;10.63;;;7.37;;
9042;SDS011;4556;49.150;8.808;2023-05-21T08:25:21;8.60;;;7.40;;
9042;SDS011;4556;49.150;8.808;2023-05-21T08:27:52;8.90;;;6.83;;
9042;SDS011;4556;49.150;8.808;2023-05-21T08:30:31;9.90;;;7.13;;
9042;SDS011;4556;49.150;8.808;2023-05-21T08:33:04;8.23;;;6.93;;
9042;SDS011;4556;49.150;8.808;2023-05-21T08:35:32;8.13;;;7.33;;
9042;SDS011;4556;49.150;8.808;2023-05-21T08:38:18;9.97;;;6.90;;
9042;SDS011;4556;49.150;8.808;2023-05-21T08:40:54;9.63;;;7.27;;
9042;SDS011;4556;49.150;8.808;2023-05-21T08:43:49;8.03;;;7.23;;
9042;SDS011;4556;49.150;8.808;2023-05-21T08:46:24;8.30;;;6.93;;
9042;SDS011;4556;49.150;8.808;2023-05-21T08:49:20;7.90;;;7.10;;
9042;SDS011;4556;49.150;8.808;2023-05-21T08:51:52;10.57;;;7.37;;
9042;SDS011;4556;49.150;8.808;2023-05-21T08:56:56;7.83;;;6.77;;
9042;SDS011;4556;49.150;8.808;2023-05-21T08:59:40;7.77;;;7.07;;
9042;SDS011;4556;49.150;8.808;2023-05-21T09:02:09;9.40;;;6.80;;
9042;SDS011;4556;49.150;8.808;2023-05-21T09:04:40;9.77;;;7.10;;
9042;SDS011;4556;49.150;8.808;2023-05-21T09:07:12;7.93;;;6.57;;
9042;SDS011;4556;49.150;8.808;2023-05-21T09:09:41;9.33;;;7.07;;
9042;SDS011;4556;49.150;8.808;2023-05-21T09:12:15;7.93;;;7.00;;
9042;SDS011;4556;49.150;8.808;2023-05-21T09:14:48;10.20;;;6.53;;
9042;SDS011;4556;49.150;8.808;2023-05-21T09:17:15;8.23;;;7.43;;
9042;SDS011;4556;49.150;8.808;2023-05-21T09:22:32;8.10;;;7.30;;
9042;SDS011;4556;49.150;8.808;2023-05-21T09:24:59;7.93;;;7.13;;
9042;SDS011;4556;49.150;8.808;2023-05-21T09:27:32;7.60;;;6.80;;
9042;SDS011;4556;49.150;8.808;2023-05-21T09:30:14;8.40;;;6.67;;
9042;SDS011;4556;49.150;8.808;2023-05-21T09:32:43;7.63;;;6.77;;
9042;SDS011;4556;49.150;8.808;2023-05-21T09:35:11;7.97;;;7.17;;
9042;SDS011;4556;49.150;8.808;2023-05-21T09:37:39;8.43;;;6.87;;
9042;SDS011;4556;49.150;8.808;2023-05-21T09:40:13;7.57;;;6.87;;
9042;SDS011;4556;49.150;8.808;2023-05-21T09:42:53;8.30;;;7.50;;
9042;SDS011;4556;49.150;8.808;2023-05-21T09:45:21;9.63;;;6.83;;
9042;SDS011;4556;49.150;8.808;2023-05-21T09:47:51;7.47;;;6.73;;
9042;SDS011;4556;49.150;8.808;2023-05-21T09:50:20;8.43;;;7.03;;
9042;SDS011;4556;49.150;8.808;2023-05-21T09:52:48;9.40;;;8.40;;
9042;SDS011;4556;49.150;8.808;2023-05-21T09:55:17;7.40;;;6.70;;
9042;SDS011;4556;49.150;8.808;2023-05-21T09:57:48;8.70;;;6.40;;
9042;SDS011;4556;49.150;8.808;2023-05-21T10:00:18;7.07;;;6.47;;
9042;SDS011;4556;49.150;8.808;2023-05-21T10:02:46;6.80;;;6.10;;
9042;SDS011;4556;49.150;8.808;2023-05-21T10:05:14;6.90;;;6.20;;
9042;SDS011;4556;49.150;8.808;2023-05-21T10:07:43;7.73;;;6.57;;
9042;SDS011;4556;49.150;8.808;2023-05-21T10:10:16;9.63;;;6.80;;
9042;SDS011;4556;49.150;8.808;2023-05-21T10:12:45;7.20;;;6.50;;
9042;SDS011;4556;49.150;8.808;2023-05-21T10:15:18;7.50;;;6.70;;
9042;SDS011;4556;49.150;8.808;2023-05-21T10:17:49;11.97;;;7.20;;
9042;SDS011;4556;49.150;8.808;2023-05-21T10:20:18;9.40;;;7.00;;
9042;SDS011;4556;49.150;8.808;2023-05-21T10:22:45;7.70;;;6.93;;
9042;SDS011;4556;49.150;8.808;2023-05-21T10:25:13;7.23;;;6.53;;
9042;SDS011;4556;49.150;8.808;2023-05-21T10:27:41;7.20;;;6.47;;
9042;SDS011;4556;49.150;8.808;2023-05-21T10:30:10;6.73;;;6.07;;
9042;SDS011;4556;49.150;8.808;2023-05-21T10:32:37;6.77;;;6.13;;
9042;SDS011;4556;49.150;8.808;2023-05-21T10:35:06;7.30;;;6.60;;
9042;SDS011;4556;49.150;8.808;2023-05-21T10:37:35;7.37;;;6.53;;
9042;SDS011;4556;49.150;8.808;2023-05-21T10:40:02;7.57;;;6.40;;
9042;SDS011;4556;49.150;8.808;2023-05-21T10:42:45;7.40;;;6.60;;
9042;SDS011;4556;49.150;8.808;2023-05-21T10:45:38;7.07;;;6.00;;
9042;SDS011;4556;49.150;8.808;2023-05-21T10:48:27;6.83;;;6.23;;
9042;SDS011;4556;49.150;8.808;2023-05-21T10:57:00;8.03;;;5.57;;
9042;SDS011;4556;49.150;8.808;2023-05-21T10:59:38;6.43;;;5.83;;
9042;SDS011;4556;49.150;8.808;2023-05-21T11:02:09;6.30;;;5.67;;
9042;SDS011;4556;49.150;8.808;2023-05-21T11:04:40;6.50;;;5.83;;
9042;SDS011;4556;49.150;8.808;2023-05-21T11:07:13;6.20;;;5.60;;
9042;SDS011;4556;49.150;8.808;2023-05-21T11:09:48;6.60;;;5.63;;
9042;SDS011;4556;49.150;8.808;2023-05-21T11:12:19;6.33;;;5.70;;
9042;SDS011;4556;49.150;8.808;2023-05-21T11:14:54;6.23;;;5.70;;
9042;SDS011;4556;49.150;8.808;2023-05-21T11:17:36;6.57;;;5.53;;
9042;SDS011;4556;49.150;8.808;2023-05-21T11:20:06;6.37;;;5.40;;
9042;SDS011;4556;49.150;8.808;2023-05-21T11:22:35;6.70;;;5.83;;
9042;SDS011;4556;49.150;8.808;2023-05-21T11:25:11;5.90;;;5.30;;
9042;SDS011;4556;49.150;8.808;2023-05-21T11:27:40;7.67;;;5.47;;
9042;SDS011;4556;49.150;8.808;2023-05-21T11:30:07;6.30;;;5.70;;
9042;SDS011;4556;49.150;8.808;2023-05-21T11:32:37;6.50;;;5.27;;
9042;SDS011;4556;49.150;8.808;2023-05-21T11:35:05;5.90;;;5.30;;
9042;SDS011;4556;49.150;8.808;2023-05-21T11:37:33;6.67;;;5.70;;
9042;SDS011;4556;49.150;8.808;2023-05-21T11:40:17;5.97;;;5.43;;
9042;SDS011;4556;49.150;8.808;2023-05-21T11:42:49;5.87;;;5.03;;
9042;SDS011;4556;49.150;8.808;2023-05-21T11:45:18;7.80;;;5.47;;
9042;SDS011;4556;49.150;8.808;2023-05-21T11:47:47;5.60;;;5.00;;
9042;SDS011;4556;49.150;8.808;2023-05-21T11:50:15;6.17;;;5.57;;
9042;SDS011;4556;49.150;8.808;2023-05-21T11:52:43;5.90;;;5.30;;
9042;SDS011;4556;49.150;8.808;2023-05-21T11:55:10;6.03;;;5.43;;
9042;SDS011;4556;49.150;8.808;2023-05-21T11:57:42;7.00;;;5.53;;
9042;SDS011;4556;49.150;8.808;2023-05-21T12:00:12;6.70;;;4.90;;
9042;SDS011;4556;49.150;8.808;2023-05-21T12:02:44;6.67;;;5.40;;
9042;SDS011;4556;49.150;8.808;2023-05-21T12:05:15;6.40;;;5.23;;
9042;SDS011;4556;49.150;8.808;2023-05-21T12:07:44;5.50;;;4.93;;
9042;SDS011;4556;49.150;8.808;2023-05-21T12:10:41;6.20;;;5.13;;
9042;SDS011;4556;49.150;8.808;2023-05-21T12:13:23;6.13;;;5.20;;
9042;SDS011;4556;49.150;8.808;2023-05-21T12:21:35;5.33;;;4.83;;
9042;SDS011;4556;49.150;8.808;2023-05-21T12:24:03;7.93;;;5.07;;
9042;SDS011;4556;49.150;8.808;2023-05-21T12:26:30;5.63;;;4.93;;
9042;SDS011;4556;49.150;8.808;2023-05-21T12:29:01;6.43;;;5.23;;
9042;SDS011;4556;49.150;8.808;2023-05-21T12:31:45;5.97;;;5.30;;
9042;SDS011;4556;49.150;8.808;2023-05-21T12:34:15;5.53;;;4.93;;
9042;SDS011;4556;49.150;8.808;2023-05-21T12:37:05;6.27;;;4.97;;
9042;SDS011;4556;49.150;8.808;2023-05-21T12:39:42;5.33;;;4.83;;
9042;SDS011;4556;49.150;8.808;2023-05-21T12:42:15;6.70;;;5.37;;
9042;SDS011;4556;49.150;8.808;2023-05-21T12:44:51;6.07;;;5.47;;
9042;SDS011;4556;49.150;8.808;2023-05-21T12:47:27;6.43;;;5.00;;
9042;SDS011;4556;49.150;8.808;2023-05-21T12:50:06;6.20;;;5.07;;
9042;SDS011;4556;49.150;8.808;2023-05-21T12:52:35;6.63;;;5.53;;
9042;SDS011;4556;49.150;8.808;2023-05-21T12:55:05;7.03;;;5.67;;
9042;SDS011;4556;49.150;8.808;2023-05-21T12:57:40;5.43;;;4.93;;
9042;SDS011;4556;49.150;8.808;2023-05-21T13:00:26;7.93;;;5.87;;
9042;SDS011;4556;49.150;8.808;2023-05-21T13:03:24;6.97;;;5.20;;
9042;SDS011;4556;49.150;8.808;2023-05-21T13:05:43;6.17;;;5.03;;
9042;SDS011;4556;49.150;8.808;2023-05-21T13:08:13;6.50;;;5.07;;
9042;SDS011;4556;49.150;8.808;2023-05-21T13:10:42;6.40;;;5.73;;
9042;SDS011;4556;49.150;8.808;2023-05-21T13:13:25;6.20;;;5.60;;
9042;SDS011;4556;49.150;8.808;2023-05-21T13:15:53;6.27;;;5.27;;
9042;SDS011;4556;49.150;8.808;2023-05-21T13:18:24;6.40;;;5.50;;
9042;SDS011;4556;49.150;8.808;2023-05-21T13:20:53;6.00;;;5.40;;
9042;SDS011;4556;49.150;8.808;2023-05-21T13:23:20;6.03;;;5.43;;
9042;SDS011;4556;49.150;8.808;2023-05-21T13:25:49;7.17;;;5.33;;
9042;SDS011;4556;49.150;8.808;2023-05-21T13:28:16;7.73;;;5.83;;
9042;SDS011;4556;49.150;8.808;2023-05-21T13:30:44;5.93;;;5.30;;
9042;SDS011;4556;49.150;8.808;2023-05-21T13:33:12;6.73;;;5.53;;
9042;SDS011;4556;49.150;8.808;2023-05-21T13:35:53;6.27;;;5.67;;
9042;SDS011;4556;49.150;8.808;2023-05-21T13:38:22;6.07;;;5.47;;
9042;SDS011;4556;49.150;8.808;2023-05-21T13:40:49;7.70;;;5.47;;
9042;SDS011;4556;49.150;8.808;2023-05-21T13:43:20;6.60;;;5.77;;
9042;SDS011;4556;49.150;8.808;2023-05-21T13:45:48;6.70;;;5.17;;
9042;SDS011;4556;49.150;8.808;2023-05-21T13:48:17;6.00;;;5.37;;
9042;SDS011;4556;49.150;8.808;2023-05-21T13:50:44;7.23;;;5.57;;
9042;SDS011;4556;49.150;8.808;2023-05-21T13:53:12;5.40;;;4.90;;
9042;SDS011;4556;49.150;8.808;2023-05-21T13:55:39;8.43;;;5.00;;
9042;SDS011;4556;49.150;8.808;2023-05-21T13:58:06;4.90;;;4.20;;
9042;SDS011;4556;49.150;8.808;2023-05-21T14:00:33;6.63;;;4.83;;
9042;SDS011;4556;49.150;8.808;2023-05-21T14:03:00;4.97;;;4.33;;
9042;SDS011;4556;49.150;8.808;2023-05-21T14:05:31;4.67;;;4.20;;
9042;SDS011;4556;49.150;8.808;2023-05-21T14:07:59;6.00;;;4.20;;
9042;SDS011;4556;49.150;8.808;2023-05-21T14:10:31;6.23;;;5.03;;
9042;SDS011;4556;49.150;8.808;2023-05-21T14:12:58;4.90;;;4.50;;
9042;SDS011;4556;49.150;8.808;2023-05-21T14:15:25;4.67;;;4.23;;
9042;SDS011;4556;49.150;8.808;2023-05-21T14:17:52;5.70;;;4.80;;
9042;SDS011;4556;49.150;8.808;2023-05-21T14:20:19;5.17;;;4.33;;
9042;SDS011;4556;49.150;8.808;2023-05-21T14:22:46;5.30;;;4.80;;
9042;SDS011;4556;49.150;8.808;2023-05-21T14:25:13;6.07;;;4.83;;
9042;SDS011;4556;49.150;8.808;2023-05-21T14:27:54;5.03;;;4.53;;
9042;SDS011;4556;49.150;8.808;2023-05-21T14:30:23;5.83;;;4.80;;
9042;SDS011;4556;49.150;8.808;2023-05-21T14:32:50;5.40;;;4.90;;
9042;SDS011;4556;49.150;8.808;2023-05-21T14:35:17;6.60;;;4.60;;
9042;SDS011;4556;49.150;8.808;2023-05-21T14:37:54;6.57;;;4.90;;
9042;SDS011;4556;49.150;8.808;2023-05-21T14:40:23;5.20;;;4.70;;
9042;SDS011;4556;49.150;8.808;2023-05-21T14:43:04;5.27;;;4.77;;
9042;SDS011;4556;49.150;8.808;2023-05-21T14:45:33;5.67;;;4.27;;
9042;SDS011;4556;49.150;8.808;2023-05-21T14:48:11;5.00;;;4.60;;
9042;SDS011;4556;49.150;8.808;2023-05-21T14:50:39;6.30;;;5.37;;
9042;SDS011;4556;49.150;8.808;2023-05-21T14:53:10;5.00;;;4.50;;
9042;SDS011;4556;49.150;8.808;2023-05-21T14:55:51;5.57;;;4.60;;
9042;SDS011;4556;49.150;8.808;2023-05-21T14:58:20;5.90;;;5.17;;
9042;SDS011;4556;49.150;8.808;2023-05-21T15:00:47;5.07;;;4.47;;
9042;SDS011;4556;49.150;8.808;2023-05-21T15:03:16;8.47;;;4.30;;
9042;SDS011;4556;49.150;8.808;2023-05-21T15:05:49;6.53;;;4.87;;
9042;SDS011;4556;49.150;8.808;2023-05-21T15:08:18;9.07;;;4.70;;
9042;SDS011;4556;49.150;8.808;2023-05-21T15:10:45;6.10;;;4.70;;
9042;SDS011;4556;49.150;8.808;2023-05-21T15:13:18;5.80;;;4.87;;
9042;SDS011;4556;49.150;8.808;2023-05-21T15:15:47;6.30;;;4.90;;
9042;SDS011;4556;49.150;8.808;2023-05-21T15:18:15;5.00;;;4.50;;
9042;SDS011;4556;49.150;8.808;2023-05-21T15:21:13;5.00;;;4.37;;
9042;SDS011;4556;49.150;8.808;2023-05-21T15:23:46;6.40;;;5.20;;
9042;SDS011;4556;49.150;8.808;2023-05-21T15:26:14;5.80;;;4.87;;
9042;SDS011;4556;49.150;8.808;2023-05-21T15:28:55;5.23;;;4.73;;
9042;SDS011;4556;49.150;8.808;2023-05-21T15:31:24;4.70;;;4.30;;
9042;SDS011;4556;49.150;8.808;2023-05-21T15:33:58;6.67;;;4.53;;
9042;SDS011;4556;49.150;8.808;2023-05-21T15:36:25;5.50;;;4.80;;
9042;SDS011;4556;49.150;8.808;2023-05-21T15:38:52;5.20;;;4.70;;
9042;SDS011;4556;49.150;8.808;2023-05-21T15:41:19;6.57;;;4.67;;
9042;SDS011;4556;49.150;8.808;2023-05-21T15:43:47;5.67;;;4.87;;
9042;SDS011;4556;49.150;8.808;2023-05-21T15:46:19;8.00;;;5.03;;
9042;SDS011;4556;49.150;8.808;2023-05-21T15:48:51;5.73;;;4.67;;
9042;SDS011;4556;49.150;8.808;2023-05-21T15:51:17;6.23;;;4.87;;
9042;SDS011;4556;49.150;8.808;2023-05-21T15:53:44;5.95;;;5.00;;
9042;SDS011;4556;49.150;8.808;2023-05-21T15:56:11;9.13;;;5.10;;
9042;SDS011;4556;49.150;8.808;2023-05-21T15:58:38;8.47;;;5.20;;
9042;SDS011;4556;49.150;8.808;2023-05-21T16:01:05;6.07;;;5.00;;
9042;SDS011;4556;49.150;8.808;2023-05-21T16:03:32;7.30;;;5.20;;
9042;SDS011;4556;49.150;8.808;2023-05-21T16:06:00;6.20;;;5.20;;
9042;SDS011;4556;49.150;8.808;2023-05-21T16:08:28;8.43;;;5.10;;
9042;SDS011;4556;49.150;8.808;2023-05-21T16:11:08;6.33;;;5.33;;
9042;SDS011;4556;49.150;8.808;2023-05-21T16:13:35;7.60;;;5.63;;
9042;SDS011;4556;49.150;8.808;2023-05-21T16:16:02;5.93;;;5.17;;
9042;SDS011;4556;49.150;8.808;2023-05-21T16:18:30;7.30;;;4.70;;
9042;SDS011;4556;49.150;8.808;2023-05-21T16:20:57;5.80;;;5.17;;
9042;SDS011;4556;49.150;8.808;2023-05-21T16:23:25;7.40;;;5.43;;
9042;SDS011;4556;49.150;8.808;2023-05-21T16:25:52;5.60;;;5.10;;
9042;SDS011;4556;49.150;8.808;2023-05-21T16:28:19;6.60;;;5.63;;
9042;SDS011;4556;49.150;8.808;2023-05-21T16:31:20;6.93;;;5.37;;
9042;SDS011;4556;49.150;8.808;2023-05-21T16:33:52;6.00;;;5.37;;
9042;SDS011;4556;49.150;8.808;2023-05-21T16:36:26;6.27;;;5.67;;
9042;SDS011;4556;49.150;8.808;2023-05-21T16:39:11;6.30;;;5.67;;
9042;SDS011;4556;49.150;8.808;2023-05-21T16:41:44;7.53;;;5.80;;
9042;SDS011;4556;49.150;8.808;2023-05-21T16:44:13;7.37;;;5.83;;